Time;durP1;ratioP1;P1;durP2;ratioP2;P2;SDS_P1;SDS_P2;PMS_P1;PMS_P2;Temp;Humidity;BMP_temperature;BMP_pressure;BME280_temperature;BME280_humidity;BME280_pressure;Samples;Min_cycle;Max_cycle;Signal;HPM_P1;HPM_P2
2023/01/29 00:01:11;;;;;;;15.40;7.60;;;;;;;-1.22;64.63;100798.65;104305;1266;107681;-51
2023/01/29 00:03:40;;;;;;;17.90;9.40;;;;;;;-1.33;64.67;100799.10;104644;1267;61474;-51
2023/01/29 00:06:08;;;;;;;17.20;8.30;;;;;;;-1.44;64.69;100793.17;104679;1265;72904;-51
2023/01/29 00:08:38;;;;;;;22.40;8.70;;;;;;;-1.53;64.83;100793.55;104607;1264;70074;-50
2023/01/29 00:11:07;;;;;;;16.20;7.20;;;;;;;-1.55;64.72;100794.45;104598;1267;73666;-48
2023/01/29 00:13:36;;;;;;;20.10;8.30;;;;;;;-1.56;64.76;100796.02;104746;1268;60878;-50
2023/01/29 00:16:05;;;;;;;17.20;8.60;;;;;;;-1.61;64.85;100801.48;104741;1268;61060;-50
2023/01/29 00:18:37;;;;;;;16.20;7.70;;;;;;;-1.68;65.08;100806.27;104731;1266;73241;-50
2023/01/29 00:21:14;;;;;;;14.20;6.50;;;;;;;-1.75;65.08;100803.86;104828;1267;71103;-50
2023/01/29 00:23:42;;;;;;;;;;;;;;;-1.82;65.19;100810.89;104627;1267;75048;-50
2023/01/29 00:26:11;;;;;;;15.90;8.50;;;;;;;-1.90;65.37;100815.18;104826;1264;60228;-50
2023/01/29 00:28:41;;;;;;;15.50;7.40;;;;;;;-1.98;65.55;100819.83;104953;1260;61323;-50
2023/01/29 00:31:14;;;;;;;14.50;5.80;;;;;;;-1.97;65.63;100819.80;105194;1260;72711;-50
2023/01/29 00:33:43;;;;;;;13.20;5.60;;;;;;;-1.93;65.57;100818.87;105313;1260;71325;-50
2023/01/29 00:36:12;;;;;;;15.90;6.60;;;;;;;-1.91;65.73;100818.66;105002;1261;73841;-50
2023/01/29 00:38:41;;;;;;;11.70;6.50;;;;;;;-1.88;65.88;100818.94;104991;1259;60618;-50
2023/01/29 00:46:48;;;;;;;16.00;5.80;;;;;;;-1.93;66.15;100818.01;104957;1263;61516;-50
2023/01/29 00:49:16;;;;;;;13.30;5.90;;;;;;;-1.94;66.18;100820.95;105038;1263;73857;-50
2023/01/29 00:52:22;;;;;;;10.20;5.10;;;;;;;-1.99;66.07;100820.89;105297;1260;60498;-49
2023/01/29 00:54:35;;;;;;;16.40;6.30;;;;;;;-2.06;66.22;100828.77;105186;1259;59964;-50
2023/01/29 00:57:03;;;;;;;10.80;5.80;;;;;;;-2.11;66.24;100834.35;105041;1261;74488;-49
2023/01/29 00:59:32;;;;;;;13.80;4.20;;;;;;;-2.08;66.01;100831.55;105044;1257;71229;-49
2023/01/29 01:04:49;;;;;;;13.40;5.60;;;;;;;-2.04;65.52;100824.09;105007;1260;62136;-49
2023/01/29 01:07:18;;;;;;;15.30;6.40;;;;;;;-1.99;65.55;100823.29;105079;1261;61053;-49
2023/01/29 01:12:33;;;;;;;22.20;6.40;;;;;;;-1.92;65.16;100830.38;104985;1261;71017;-49
2023/01/29 01:15:03;;;;;;;16.50;7.30;;;;;;;-1.99;65.09;100825.02;105152;1260;73620;-49
2023/01/29 01:17:31;;;;;;;15.40;7.30;;;;;;;-2.00;65.50;100829.86;105024;1267;59739;-49
2023/01/29 01:20:00;;;;;;;12.30;7.10;;;;;;;-2.00;65.43;100827.96;104897;1260;61300;-50
2023/01/29 01:22:30;;;;;;;16.70;5.60;;;;;;;-2.05;65.52;100824.77;105077;1261;73839;-49
2023/01/29 01:24:58;;;;;;;10.20;5.30;;;;;;;-2.06;65.65;100816.56;104983;1259;71254;-49
2023/01/29 01:27:26;;;;;;;16.00;6.80;;;;;;;-2.10;65.61;100817.31;104918;1260;73433;-50
2023/01/29 01:29:55;;;;;;;12.90;6.20;;;;;;;-2.13;65.63;100815.67;104796;1258;60547;-50
2023/01/29 01:32:23;;;;;;;13.70;7.00;;;;;;;-2.16;65.62;100815.05;104869;1257;62226;-50
2023/01/29 01:34:52;;;;;;;16.10;7.20;;;;;;;-2.23;65.67;100819.48;105114;1262;73769;-50
2023/01/29 01:37:20;;;;;;;15.50;7.70;;;;;;;-2.24;65.58;100825.52;105018;1266;71479;-50
2023/01/29 01:39:49;;;;;;;15.50;6.80;;;;;;;-2.18;65.51;100826.78;104969;1262;71672;-49
2023/01/29 01:42:17;;;;;;;16.90;7.40;;;;;;;-2.14;65.58;100825.67;104836;1263;59758;-49
2023/01/29 01:45:03;;;;;;;16.40;7.10;;;;;;;-2.12;65.71;100825.80;104927;1258;60693;-49
2023/01/29 01:47:36;;;;;;;17.80;7.90;;;;;;;-2.12;65.90;100828.54;104820;1263;73556;-49
2023/01/29 01:50:08;;;;;;;15.90;7.50;;;;;;;-2.13;65.89;100825.65;105341;1261;71673;-49
2023/01/29 01:52:39;;;;;;;16.00;6.40;;;;;;;-2.16;65.97;100827.08;104880;1263;73467;-50
2023/01/29 01:55:08;;;;;;;15.40;7.00;;;;;;;-2.21;65.95;100824.77;108800;1257;59436;-50
2023/01/29 01:57:38;;;;;;;17.10;7.10;;;;;;;-2.26;66.10;100831.05;105735;1260;61726;-50
2023/01/29 02:00:11;;;;;;;21.00;8.30;;;;;;;-2.30;66.16;100833.89;105083;1265;73007;-49
2023/01/29 02:11:16;;;;;;;18.10;6.10;;;;;;;-2.18;66.10;100834.86;106191;1260;60342;-50
2023/01/29 02:13:44;;;;;;;17.10;7.30;;;;;;;-2.19;66.18;100834.19;105561;1262;74123;-50
2023/01/29 02:16:12;;;;;;;14.30;6.10;;;;;;;-2.23;66.15;100833.74;105122;1260;71524;-50
2023/01/29 02:18:40;;;;;;;15.60;8.00;;;;;;;-2.28;66.14;100836.77;105627;1263;73723;-49
2023/01/29 02:21:28;;;;;;;18.00;7.30;;;;;;;-2.34;66.19;100840.50;105320;1261;61677;-50
2023/01/29 02:24:31;;;;;;;16.10;7.00;;;;;;;-2.42;66.32;100842.89;105178;1260;61044;-50
2023/01/29 02:27:07;;;;;;;11.20;6.00;;;;;;;-2.49;66.42;100842.66;105295;1260;64431;-50
2023/01/29 02:29:54;;;;;;;;;;;;;;;-2.46;66.34;100837.80;105307;1263;70997;-50
2023/01/29 02:32:57;;;;;;;11.50;4.10;;;;;;;-2.39;66.35;100837.68;105364;1263;73686;-50
2023/01/29 02:35:43;;;;;;;15.90;7.20;;;;;;;-2.32;66.37;100839.25;105380;1262;59743;-50
2023/01/29 02:38:26;;;;;;;15.30;7.60;;;;;;;-2.26;66.59;100836.38;105189;1258;61090;-49
2023/01/29 02:41:06;;;;;;;14.90;6.70;;;;;;;-2.24;66.64;100836.18;105217;1263;72315;-50
2023/01/29 02:44:26;;;;;;;16.20;8.60;;;;;;;-2.23;66.59;100841.48;105040;1263;71274;-49
2023/01/29 02:47:29;;;;;;;16.00;6.80;;;;;;;-2.24;66.52;100843.92;105062;1260;65134;-50
2023/01/29 02:50:13;;;;;;;19.90;9.10;;;;;;;-2.28;66.52;100845.70;105222;1257;59648;-51
2023/01/29 02:53:03;;;;;;;16.60;9.70;;;;;;;-2.33;66.71;100845.81;105095;1264;60329;-50
2023/01/29 02:55:33;;;;;;;19.30;9.80;;;;;;;-2.36;66.62;100845.86;105132;1262;65426;-50
2023/01/29 02:58:16;;;;;;;17.20;7.10;;;;;;;-2.32;66.61;100838.73;105197;1262;71107;-50
2023/01/29 03:00:45;;;;;;;20.90;9.00;;;;;;;-2.22;66.49;100837.85;105284;1260;73393;-52
2023/01/29 03:03:18;;;;;;;22.90;9.70;;;;;;;-2.15;66.41;100839.08;105162;1263;60298;-50
2023/01/29 03:06:21;;;;;;;24.70;7.90;;;;;;;-2.12;66.46;100839.02;105225;1258;61020;-50
2023/01/29 03:08:53;;;;;;;20.20;7.50;;;;;;;-2.11;66.32;100836.94;105193;1260;64617;-49
2023/01/29 03:11:21;;;;;;;14.80;6.90;;;;;;;-2.13;66.36;100836.28;105294;1263;71726;-50
2023/01/29 03:13:54;;;;;;;15.40;6.40;;;;;;;-2.17;66.37;100838.45;105176;1263;72974;-50
2023/01/29 03:16:41;;;;;;;15.30;6.40;;;;;;;-2.24;66.31;100835.66;105231;1260;60456;-50
2023/01/29 03:19:18;;;;;;;19.50;6.90;;;;;;;-2.32;66.38;100838.04;105214;1262;59627;-50
2023/01/29 03:21:58;;;;;;;17.20;6.80;;;;;;;-2.38;66.53;100840.91;105368;1262;74271;-50
2023/01/29 03:33:23;;;;;;;21.50;9.20;;;;;;;-2.20;66.19;100837.29;105079;1261;59771;-50
2023/01/29 03:36:07;;;;;;;17.00;9.30;;;;;;;-2.13;66.06;100838.88;104907;1266;74012;-50
2023/01/29 03:38:36;;;;;;;19.50;7.70;;;;;;;-2.10;66.07;100839.67;105299;1260;71151;-48
2023/01/29 03:41:22;;;;;;;16.20;7.50;;;;;;;-2.12;66.01;100839.36;105085;1263;73476;-48
2023/01/29 03:43:50;;;;;;;15.70;7.40;;;;;;;-2.15;65.87;100838.92;105636;1263;60213;-48
2023/01/29 03:46:30;;;;;;;17.30;6.80;;;;;;;-2.19;65.84;100842.95;104954;1263;60536;-51
2023/01/29 03:49:13;;;;;;;20.10;7.70;;;;;;;-2.27;65.66;100841.90;104796;1263;73888;-49
2023/01/29 04:03:15;;;;;;;20.90;7.60;;;;;;;-1.96;65.33;100841.92;102852;1284;604321;-49
2023/01/29 04:06:04;;;;;;;20.80;9.50;;;;;;;-1.62;64.36;100835.90;104506;1266;79684;-49
2023/01/29 04:08:34;;;;;;;14.20;7.00;;;;;;;-1.75;64.14;100835.86;105405;1268;59324;-49
2023/01/29 04:11:06;;;;;;;16.70;7.20;;;;;;;-1.91;63.94;100836.20;105061;1266;73179;-49
2023/01/29 04:13:34;;;;;;;21.40;10.70;;;;;;;-2.06;64.14;100836.34;104626;1267;70372;-49
2023/01/29 04:16:06;;;;;;;22.40;9.20;;;;;;;-2.15;64.51;100838.58;104467;1270;72672;-49
2023/01/29 04:18:58;;;;;;;18.90;7.40;;;;;;;-2.17;65.00;100838.28;104119;1268;60483;-49
2023/01/29 04:21:35;;;;;;;17.10;8.00;;;;;;;-2.10;65.10;100838.12;105142;1270;61364;-49
2023/01/29 04:24:05;;;;;;;18.90;7.70;;;;;;;-2.00;64.89;100838.09;104474;1266;72160;-49
2023/01/29 04:26:46;;;;;;;17.50;8.00;;;;;;;-1.91;64.84;100836.02;104960;1256;71056;-50
2023/01/29 04:29:48;;;;;;;16.60;6.20;;;;;;;-1.78;64.80;100825.95;105189;1256;73813;-50
2023/01/29 04:32:46;;;;;;;;;;;;;;;-1.76;64.53;100822.46;105236;1257;59549;-50
2023/01/29 04:35:25;;;;;;;21.20;9.20;;;;;;;-1.78;64.66;100827.83;105267;1258;60889;-49
2023/01/29 04:38:10;;;;;;;24.40;9.80;;;;;;;-1.76;64.86;100831.06;105019;1256;74045;-49
2023/01/29 04:41:04;;;;;;;15.70;7.70;;;;;;;-1.75;64.65;100835.17;105070;1256;69073;-49
2023/01/29 04:43:54;;;;;;;21.90;10.90;;;;;;;-1.77;64.49;100835.73;104868;1257;64092;-48
2023/01/29 04:47:01;;;;;;;18.40;9.00;;;;;;;-1.81;64.39;100841.48;105156;1257;60530;-49
2023/01/29 04:49:44;;;;;;;19.60;9.70;;;;;;;-1.86;64.36;100850.19;105133;1258;59675;-48
2023/01/29 04:52:23;;;;;;;24.20;9.10;;;;;;;-1.92;64.38;100847.90;104903;1256;74056;-49
2023/01/29 04:55:04;;;;;;;20.30;8.50;;;;;;;-2.00;64.59;100850.13;106071;1258;70275;-48
2023/01/29 04:57:34;;;;;;;24.10;10.40;;;;;;;-2.06;64.66;100844.40;105695;1256;73489;-49
2023/01/29 05:00:07;;;;;;;16.40;5.40;;;;;;;-2.09;64.90;100843.09;105108;1259;60039;-48
2023/01/29 05:02:38;;;;;;;12.80;6.70;;;;;;;-2.06;64.82;100842.52;105159;1256;61336;-48
2023/01/29 05:05:07;;;;;;;17.70;6.90;;;;;;;-2.01;64.74;100843.45;105051;1260;73894;-48
2023/01/29 05:07:36;;;;;;;20.30;7.90;;;;;;;-1.92;64.90;100844.62;105106;1259;70777;-48
2023/01/29 05:10:05;;;;;;;16.20;7.00;;;;;;;-1.80;64.87;100839.41;105195;1259;72655;-48
2023/01/29 05:12:35;;;;;;;13.00;6.10;;;;;;;-1.70;64.78;100838.66;106343;1256;59660;-48
2023/01/29 05:15:08;;;;;;;15.50;6.70;;;;;;;-1.66;64.57;100844.42;105126;1256;61508;-48
2023/01/29 05:17:36;;;;;;;23.10;9.00;;;;;;;-1.73;64.64;100844.06;105432;1258;72696;-48
2023/01/29 05:20:06;;;;;;;15.00;7.60;;;;;;;-1.76;64.73;100846.54;106585;1256;71288;-48
2023/01/29 05:22:36;;;;;;;20.40;7.60;;;;;;;-1.76;65.14;100847.39;105450;1256;71674;-48
2023/01/29 05:25:19;;;;;;;16.00;8.70;;;;;;;-1.75;65.20;100850.64;105133;1256;61978;-48
2023/01/29 05:28:15;;;;;;;13.50;7.70;;;;;;;-1.73;65.20;100854.02;105253;1255;61640;-47
2023/01/29 05:30:45;;;;;;;15.90;6.50;;;;;;;-1.73;65.19;100853.02;105663;1256;74240;-49
2023/01/29 05:33:29;;;;;;;14.40;7.10;;;;;;;-1.77;65.16;100852.41;105026;1256;70251;-49
2023/01/29 05:35:58;;;;;;;16.70;7.60;;;;;;;-1.82;65.17;100857.52;105164;1256;75258;-49
2023/01/29 05:38:27;;;;;;;17.90;7.50;;;;;;;-1.87;65.24;100857.78;104866;1258;61368;-49
2023/01/29 05:40:58;;;;;;;14.70;7.40;;;;;;;-1.93;65.37;100863.05;104955;1256;60891;-48
2023/01/29 05:43:26;;;;;;;16.20;8.00;;;;;;;-1.98;65.49;100868.33;104920;1254;73793;-48
2023/01/29 05:45:59;;;;;;;15.90;8.60;;;;;;;-2.04;65.71;100866.71;104944;1255;70975;-49
2023/01/29 05:48:28;;;;;;;18.00;7.40;;;;;;;-2.07;65.85;100872.27;104793;1260;73132;-49
2023/01/29 05:51:00;;;;;;;16.00;7.70;;;;;;;-2.08;65.87;100866.95;104905;1256;61417;-50
2023/01/29 05:53:29;;;;;;;17.70;8.60;;;;;;;-2.09;66.00;100864.91;105210;1256;61827;-49
2023/01/29 05:56:00;;;;;;;19.30;8.70;;;;;;;-2.12;66.03;100863.95;105817;1258;74330;-49
2023/01/29 05:58:32;;;;;;;14.20;6.20;;;;;;;-2.04;66.07;100863.96;104834;1258;71799;-49
2023/01/29 06:01:11;;;;;;;15.10;5.70;;;;;;;-1.91;66.01;100860.60;105312;1256;73376;-49
2023/01/29 06:03:40;;;;;;;15.60;7.60;;;;;;;-1.81;65.75;100856.27;105509;1256;60873;-50
2023/01/29 06:06:11;;;;;;;14.50;6.40;;;;;;;-1.70;65.89;100856.73;105241;1259;61336;-50
2023/01/29 06:08:40;;;;;;;13.40;6.10;;;;;;;-1.55;65.90;100860.19;105216;1258;74124;-50
2023/01/29 06:11:10;;;;;;;19.10;7.20;;;;;;;-1.42;65.77;100859.19;105686;1258;70128;-50
2023/01/29 06:13:39;;;;;;;19.00;9.80;;;;;;;-1.34;65.57;100860.92;105344;1259;72658;-50
2023/01/29 06:16:08;;;;;;;27.30;9.50;;;;;;;-1.31;65.53;100861.02;105382;1256;60402;-50
2023/01/29 06:18:37;;;;;;;19.20;10.50;;;;;;;-1.32;65.31;100860.69;105316;1256;61201;-50
2023/01/29 06:21:07;;;;;;;18.60;8.20;;;;;;;-1.34;65.13;100867.98;105414;1256;72785;-49
2023/01/29 06:23:36;;;;;;;16.30;5.90;;;;;;;-1.42;64.81;100864.20;105312;1258;71191;-49
2023/01/29 06:26:06;;;;;;;17.80;8.60;;;;;;;-1.57;64.62;100865.40;105501;1256;73904;-49
2023/01/29 06:28:35;;;;;;;13.30;7.20;;;;;;;-1.67;65.02;100863.73;105262;1259;60788;-53
2023/01/29 06:31:04;;;;;;;20.90;7.90;;;;;;;-1.71;65.17;100860.69;105580;1256;60110;-49
2023/01/29 06:33:52;;;;;;;21.30;9.90;;;;;;;-1.77;65.10;100865.30;105338;1256;74240;-50
2023/01/29 06:36:20;;;;;;;18.70;8.50;;;;;;;-1.81;65.34;100866.77;105821;1256;71320;-50
2023/01/29 06:38:49;;;;;;;23.10;9.10;;;;;;;-1.82;65.38;100863.19;105283;1258;73636;-49
2023/01/29 06:41:18;;;;;;;18.10;8.10;;;;;;;-1.85;65.57;100859.45;105051;1255;61569;-51
2023/01/29 06:43:47;;;;;;;21.50;10.30;;;;;;;-1.84;65.59;100860.47;105281;1255;61791;-50
2023/01/29 06:46:16;;;;;;;20.90;8.50;;;;;;;-1.83;65.82;100859.08;105389;1259;73986;-49
2023/01/29 06:48:44;;;;;;;20.30;7.60;;;;;;;-1.81;65.76;100858.34;105832;1256;71370;-49
2023/01/29 06:51:14;;;;;;;14.70;8.10;;;;;;;-1.81;65.68;100859.21;105602;1256;73996;-49
2023/01/29 06:53:43;;;;;;;14.70;6.70;;;;;;;-1.84;65.83;100858.23;105206;1256;63024;-49
2023/01/29 06:56:13;;;;;;;16.60;7.40;;;;;;;-1.73;65.71;100856.27;105245;1261;59574;-49
2023/01/29 06:58:42;;;;;;;18.20;7.90;;;;;;;-1.60;65.60;100851.88;105321;1259;74000;-49
2023/01/29 07:01:11;;;;;;;14.60;4.80;;;;;;;-1.45;65.83;100858.07;105259;1256;70943;-49
2023/01/29 07:03:56;;;;;;;15.40;7.40;;;;;;;-1.28;65.60;100860.60;105164;1254;73704;-50
2023/01/29 07:06:28;;;;;;;14.80;8.00;;;;;;;-1.15;65.55;100863.73;105334;1256;60528;-49
2023/01/29 07:08:56;;;;;;;13.70;7.30;;;;;;;-1.07;65.52;100861.33;104909;1254;61374;-49
2023/01/29 07:11:27;;;;;;;18.60;8.10;;;;;;;-0.99;65.41;100861.98;105227;1259;73757;-48
2023/01/29 07:13:55;;;;;;;18.90;9.40;;;;;;;-0.94;65.34;100867.69;105180;1256;70974;-48
2023/01/29 07:16:25;;;;;;;20.80;8.80;;;;;;;-0.88;65.21;100865.67;105492;1258;73543;-49
2023/01/29 07:18:53;;;;;;;21.70;9.00;;;;;;;-0.81;65.22;100861.02;105190;1259;59833;-49
2023/01/29 07:21:22;;;;;;;21.50;9.90;;;;;;;-0.78;64.94;100855.26;105192;1257;60881;-49
2023/01/29 07:23:50;;;;;;;21.50;10.90;;;;;;;-0.73;64.98;100855.13;105077;1258;73688;-49
2023/01/29 07:26:19;;;;;;;23.40;9.20;;;;;;;-0.67;64.89;100861.02;105286;1259;71386;-49
2023/01/29 07:28:48;;;;;;;17.80;7.60;;;;;;;-0.63;64.58;100858.67;105987;1259;73585;-48
2023/01/29 07:31:17;;;;;;;21.20;11.50;;;;;;;-0.59;64.47;100854.08;105461;1255;61936;-49
2023/01/29 07:33:49;;;;;;;19.40;9.30;;;;;;;-0.46;64.41;100858.58;105375;1256;61009;-50
2023/01/29 07:36:19;;;;;;;19.40;10.80;;;;;;;-0.32;64.33;100854.91;105204;1259;73997;-49
2023/01/29 07:38:50;;;;;;;18.90;8.80;;;;;;;-0.17;64.23;100855.70;105184;1256;71310;-49
2023/01/29 07:41:21;;;;;;;19.30;8.80;;;;;;;-0.07;64.00;100854.23;105215;1259;72634;-49
2023/01/29 07:43:50;;;;;;;19.00;8.90;;;;;;;-0.03;63.63;100858.58;105178;1256;60343;-49
2023/01/29 07:46:18;;;;;;;17.90;8.30;;;;;;;-0.03;63.62;100862.55;105153;1256;61581;-49
2023/01/29 07:50:30;;;;;;;14.90;6.80;;;;;;;-0.20;64.37;100862.52;103126;1286;601108;-64
2023/01/29 07:52:58;;;;;;;19.20;9.60;;;;;;;-0.05;63.99;100860.53;108501;1266;60296;-63
2023/01/29 07:55:27;;;;;;;23.40;10.60;;;;;;;-0.03;63.85;100861.70;107286;1257;60226;-63
2023/01/29 07:57:59;;;;;;;19.60;9.20;;;;;;;0.02;63.56;100860.36;106985;1259;73575;-64
2023/01/29 08:00:29;;;;;;;19.80;9.20;;;;;;;0.11;63.44;100860.44;105144;1257;71102;-64
2023/01/29 08:03:06;;;;;;;19.50;8.80;;;;;;;0.16;63.42;100858.40;105940;1257;174269;-64
2023/01/29 08:05:34;;;;;;;17.80;9.10;;;;;;;0.20;63.68;100859.67;105706;1257;59639;-62
2023/01/29 08:08:03;;;;;;;18.50;9.00;;;;;;;0.22;63.72;100862.88;109047;1256;61428;-62
2023/01/29 08:10:35;;;;;;;28.00;10.90;;;;;;;0.29;63.73;100870.77;109117;1256;72142;-61
2023/01/29 08:13:05;;;;;;;19.10;8.60;;;;;;;0.37;63.65;100868.30;106806;1258;71725;-63
2023/01/29 08:15:34;;;;;;;22.40;9.70;;;;;;;0.43;63.34;100867.45;107072;1254;73627;-65
2023/01/29 08:18:05;;;;;;;21.40;11.70;;;;;;;0.46;63.00;100868.73;108489;1256;60888;-62
2023/01/29 08:20:34;;;;;;;19.50;8.80;;;;;;;0.53;62.68;100870.08;107840;1254;61161;-64
2023/01/29 08:23:07;;;;;;;22.70;13.70;;;;;;;0.57;62.82;100867.71;108741;1254;72996;-63
2023/01/29 08:25:37;;;;;;;21.40;9.30;;;;;;;0.58;62.52;100870.27;109023;1256;70539;-63
2023/01/29 08:28:06;;;;;;;24.80;11.40;;;;;;;0.58;62.71;100867.14;109025;1257;73636;-65
2023/01/29 08:30:34;;;;;;;20.10;10.70;;;;;;;0.61;62.86;100862.40;106114;1254;60767;-62
2023/01/29 08:33:02;;;;;;;20.80;10.10;;;;;;;0.62;63.06;100864.45;105420;1257;60478;-62
2023/01/29 08:35:31;;;;;;;21.10;10.20;;;;;;;0.61;63.25;100865.33;106943;1254;72906;-63
2023/01/29 08:38:02;;;;;;;20.00;9.80;;;;;;;0.67;63.30;100861.52;105184;1257;71434;-63
2023/01/29 08:40:31;;;;;;;26.90;12.10;;;;;;;0.69;63.30;100867.66;105653;1254;72839;-63
2023/01/29 08:43:00;;;;;;;26.90;11.10;;;;;;;0.71;63.59;100869.16;105502;1259;60425;-63
2023/01/29 08:45:36;;;;;;;20.80;9.10;;;;;;;0.75;63.65;100867.33;106254;1256;60301;-61
2023/01/29 08:48:05;;;;;;;22.40;10.80;;;;;;;0.78;63.83;100862.21;105505;1254;73897;-62
2023/01/29 08:50:33;;;;;;;18.60;8.60;;;;;;;0.82;63.82;100866.58;107130;1257;71554;-62
2023/01/29 08:53:08;;;;;;;24.60;11.30;;;;;;;0.82;63.46;100863.10;105918;1257;72450;-62
2023/01/29 08:55:38;;;;;;;14.20;7.20;;;;;;;0.85;63.07;100859.57;105576;1258;61927;-63
2023/01/29 08:58:07;;;;;;;24.20;10.50;;;;;;;0.94;62.89;100857.40;105328;1256;59577;-61
2023/01/29 09:00:35;;;;;;;23.30;9.70;;;;;;;0.98;62.96;100854.34;105660;1260;74344;-63
2023/01/29 09:03:06;;;;;;;24.00;9.30;;;;;;;0.97;62.84;100855.04;105189;1256;71108;-62
2023/01/29 09:05:36;;;;;;;21.60;10.20;;;;;;;0.94;62.94;100851.68;105492;1258;73688;-63
2023/01/29 09:08:05;;;;;;;22.90;9.30;;;;;;;0.91;62.87;100852.13;105221;1256;60433;-64
2023/01/29 09:10:35;;;;;;;39.30;13.50;;;;;;;0.85;62.96;100853.02;105508;1257;61317;-62
2023/01/29 09:13:04;;;;;;;25.50;12.40;;;;;;;0.80;63.30;100849.56;105205;1254;74130;-62
2023/01/29 09:15:33;;;;;;;19.60;9.60;;;;;;;0.81;63.48;100845.02;105673;1254;70124;-61
2023/01/29 09:18:03;;;;;;;28.30;11.80;;;;;;;0.86;63.10;100839.50;105276;1257;73706;-61
2023/01/29 09:20:32;;;;;;;26.60;10.80;;;;;;;0.86;63.30;100842.96;105260;1257;60437;-60
2023/01/29 09:23:05;;;;;;;21.80;10.00;;;;;;;0.83;63.55;100842.02;105217;1256;61341;-63
2023/01/29 09:25:36;;;;;;;19.10;9.80;;;;;;;0.84;63.76;100837.66;105199;1258;73789;-63
2023/01/29 09:28:05;;;;;;;22.80;10.60;;;;;;;0.85;63.85;100837.65;105415;1260;71217;-62
2023/01/29 09:30:36;;;;;;;22.20;11.60;;;;;;;0.83;63.91;100834.60;105206;1257;73986;-62
2023/01/29 09:33:05;;;;;;;18.20;8.60;;;;;;;0.85;63.69;100834.36;105345;1259;62239;-61
2023/01/29 09:35:33;;;;;;;22.40;9.70;;;;;;;0.94;63.68;100836.30;105283;1254;60324;-62
2023/01/29 09:38:02;;;;;;;18.90;10.30;;;;;;;1.01;63.25;100832.79;105240;1258;74065;-62
2023/01/29 09:40:43;;;;;;;22.50;13.00;;;;;;;1.01;62.96;100830.20;105208;1258;70965;-63
2023/01/29 09:43:30;;;;;;;20.90;10.40;;;;;;;1.00;63.31;100827.83;105216;1257;73641;-62
2023/01/29 09:46:00;;;;;;;23.00;11.30;;;;;;;0.98;63.25;100827.38;107055;1254;59739;-61
2023/01/29 12:20:55;;;;;;;10.30;5.50;;;;;;;2.11;60.62;100708.10;102961;1285;604587;-55
2023/01/29 12:23:33;;;;;;;13.10;5.40;;;;;;;2.40;59.68;100705.23;104611;1267;85123;-56
2023/01/29 12:26:09;;;;;;;15.30;6.30;;;;;;;2.33;59.73;100705.67;104808;1267;59238;-55
2023/01/29 12:28:50;;;;;;;;;;;;;;;2.27;59.87;100704.38;104678;1267;63591;-55
2023/01/29 12:31:18;;;;;;;14.80;5.50;;;;;;;2.20;59.89;100701.36;104588;1267;61364;-55
2023/01/29 12:33:47;;;;;;;14.60;6.00;;;;;;;2.12;60.06;100701.69;104560;1267;73331;-55
2023/01/29 12:36:20;;;;;;;10.80;5.50;;;;;;;2.11;60.23;100706.75;104635;1269;62031;-54
2023/01/29 12:38:49;;;;;;;11.20;5.30;;;;;;;2.16;59.94;100710.33;104501;1267;59266;-55
2023/01/29 12:41:33;;;;;;;12.30;5.80;;;;;;;2.17;59.77;100712.38;104834;1268;72510;-54
2023/01/29 12:44:23;;;;;;;11.50;5.30;;;;;;;2.14;59.69;100710.08;104554;1267;62647;-55
2023/01/29 12:46:54;;;;;;;13.60;5.80;;;;;;;2.11;59.70;100708.33;104781;1267;64062;-57
2023/01/29 12:49:25;;;;;;;14.10;6.10;;;;;;;2.08;59.89;100709.63;104777;1267;60629;-55
2023/01/29 12:52:06;;;;;;;13.20;5.90;;;;;;;2.08;59.63;100706.36;104709;1267;61359;-55
2023/01/29 12:54:40;;;;;;;10.20;5.20;;;;;;;2.04;59.45;100704.44;104551;1269;65387;-55
2023/01/29 12:57:18;;;;;;;14.10;5.90;;;;;;;1.98;59.52;100704.30;104641;1267;62595;-56
2023/01/29 12:59:51;;;;;;;12.10;5.20;;;;;;;1.94;59.57;100703.43;104843;1267;65136;-55
2023/01/29 13:02:20;;;;;;;10.20;4.70;;;;;;;1.91;59.75;100703.73;104865;1271;61138;-56
2023/01/29 13:04:58;;;;;;;9.10;4.20;;;;;;;1.96;59.64;100699.67;104736;1270;61001;-55
2023/01/29 13:07:35;;;;;;;9.90;4.90;;;;;;;2.05;59.28;100701.29;104721;1274;65354;-55
2023/01/29 13:10:11;;;;;;;12.80;5.30;;;;;;;2.06;59.36;100699.67;104577;1267;62705;-55
2023/01/29 13:12:39;;;;;;;11.00;5.60;;;;;;;2.08;59.47;100696.32;104770;1267;64005;-54
2023/01/29 13:15:25;;;;;;;12.00;5.00;;;;;;;2.09;59.31;100698.52;104863;1262;61403;-55
2023/01/29 13:17:56;;;;;;;10.60;5.30;;;;;;;2.10;59.29;100694.52;104731;1263;59689;-55
2023/01/29 13:20:29;;;;;;;11.80;5.80;;;;;;;2.11;59.34;100697.59;104889;1266;65427;-55
2023/01/29 13:23:02;;;;;;;13.50;5.10;;;;;;;2.10;59.44;100696.74;104827;1262;70994;-55
2023/01/29 13:25:31;;;;;;;10.50;4.90;;;;;;;2.08;59.34;100693.20;104718;1265;64872;-54
2023/01/29 13:27:59;;;;;;;12.60;5.20;;;;;;;2.05;59.38;100690.55;104858;1266;60778;-54
2023/01/29 13:30:30;;;;;;;13.60;5.50;;;;;;;2.00;59.43;100693.98;104827;1267;60543;-55
2023/01/29 13:33:07;;;;;;;12.50;5.90;;;;;;;1.95;59.55;100692.64;104643;1267;64413;-55
2023/01/29 13:35:57;;;;;;;9.60;4.90;;;;;;;1.99;59.55;100692.48;104771;1264;64009;-54
2023/01/29 13:38:31;;;;;;;9.80;4.40;;;;;;;2.08;59.54;100692.84;104904;1266;73677;-55
2023/01/29 13:41:01;;;;;;;12.70;5.90;;;;;;;2.11;59.38;100694.09;104882;1264;59752;-54
2023/01/29 13:43:41;;;;;;;12.70;5.60;;;;;;;2.13;59.17;100693.85;105126;1257;60328;-54
2023/01/29 13:46:14;;;;;;;12.70;5.90;;;;;;;2.13;59.16;100692.83;105045;1260;64356;-54
2023/01/29 13:48:45;;;;;;;10.60;4.70;;;;;;;2.12;59.32;100693.91;105079;1260;61734;-54
2023/01/29 13:51:19;;;;;;;11.00;4.80;;;;;;;2.11;59.42;100691.15;105109;1258;65280;-55
2023/01/29 13:53:54;;;;;;;11.60;4.70;;;;;;;2.12;59.25;100694.08;105251;1261;59727;-55
2023/01/29 13:56:32;;;;;;;10.60;4.70;;;;;;;2.11;59.23;100693.60;105166;1260;59628;-55
2023/01/29 13:59:01;;;;;;;14.50;5.90;;;;;;;2.09;59.30;100687.79;105284;1261;65234;-56
2023/01/29 14:01:48;;;;;;;12.10;5.00;;;;;;;2.07;59.28;100695.29;105357;1260;61448;-55
2023/01/29 14:04:27;;;;;;;14.50;6.20;;;;;;;2.05;59.38;100696.58;105267;1260;64792;-55
2023/01/29 14:07:02;;;;;;;12.20;4.80;;;;;;;2.01;59.29;100692.95;105427;1257;59763;-56
2023/01/29 14:09:30;;;;;;;12.00;5.30;;;;;;;2.00;59.28;100692.12;105361;1260;59676;-53
2023/01/29 14:11:59;;;;;;;8.50;3.60;;;;;;;2.06;59.36;100692.08;105264;1260;65038;-56
2023/01/29 14:14:46;;;;;;;11.10;4.90;;;;;;;2.12;59.21;100694.93;105264;1262;70007;-54
2023/01/29 14:17:15;;;;;;;14.30;6.50;;;;;;;2.12;59.07;100691.83;105327;1258;64695;-55
2023/01/29 14:20:02;;;;;;;13.70;5.10;;;;;;;2.12;59.28;100686.44;105246;1260;59654;-55
2023/01/29 14:22:30;;;;;;;;;;;;;;;2.15;59.38;100687.05;105331;1257;59747;-53
2023/01/29 14:25:03;;;;;;;12.50;5.70;;;;;;;2.14;59.36;100682.75;104827;1260;65616;-55
2023/01/29 14:27:32;;;;;;;11.70;5.00;;;;;;;2.14;59.34;100679.10;105024;1257;62348;-55
2023/01/29 14:30:02;;;;;;;11.40;5.80;;;;;;;2.11;59.23;100678.88;105015;1260;73708;-53
2023/01/29 14:32:31;;;;;;;14.90;6.00;;;;;;;2.06;59.35;100677.18;105399;1257;59656;-54
2023/01/29 14:35:01;;;;;;;11.00;4.90;;;;;;;2.00;59.33;100676.02;105386;1258;59665;-55
2023/01/29 14:37:38;;;;;;;15.70;5.80;;;;;;;1.93;59.52;100673.71;105338;1258;64074;-56
2023/01/29 14:40:20;;;;;;;16.10;6.10;;;;;;;1.86;59.59;100676.23;105166;1257;62620;-54
2023/01/29 14:43:07;;;;;;;12.60;5.60;;;;;;;1.80;59.73;100674.58;104866;1258;65042;-55
2023/01/29 14:45:43;;;;;;;13.70;6.20;;;;;;;1.75;59.89;100678.72;104847;1260;59767;-54
2023/01/29 14:48:30;;;;;;;13.20;5.70;;;;;;;1.70;60.12;100679.80;105011;1257;59574;-55
2023/01/29 14:51:08;;;;;;;14.50;5.60;;;;;;;1.63;60.41;100682.80;104958;1260;65359;-55
2023/01/29 14:54:20;;;;;;;12.20;6.00;;;;;;;1.57;60.45;100683.72;105034;1262;61607;-55
2023/01/29 14:57:01;;;;;;;16.10;5.90;;;;;;;1.52;60.57;100683.05;104878;1257;65292;-54